Townville, PA (16360)

1:58 AM EDT on May 07, 2015 (GMT -0400)
Rockdale Twp | | Change Station
CLOSE
Current Station
Personal Weather Station
Location: Cambridge Springs, PA
Elevation: 1171 ft
Nearby Weather Stations

Elev 1171 ft 41.79 °N, 80.01 °W | Updated 8 seconds ago

Clear
Clear
51.0 °F
Feels Like 51.0 °F
N
0.0
Wind Variable Wind from SSE
Gusts 0.0 mph

Today
High -- | Low -- °F
--% Chance of Precip.
Yesterday
High -- | Low -- °F
Precip. -- in
6:08 AM 8:23 PM
Waning Gibbous, 90% visible
Pressure 30.18 in
Visibility 8.0 miles
Clouds Clear
Dew Point 46 °F
Humidity 84%
Rainfall 0.00 in
Snow Depth Not available.
UV 0 out of 12
Pollen 5.60 out of 12
Air Quality Not available.
Flu Activity Sporadic
METAR KGKJ 070453Z AUTO 00000KT 8SM CLR 14/13 A3019 RMK AO2 SLP218 T01440128 402330144 TSNO

More Conditions Fewer Conditions

Pressure 30.18 in
Visibility 8.0 miles
Clouds Clear
Dew Point 46 °F
Humidity 84%
Rainfall 0.00 in
Snow Depth Not available.
UV 0 out of 12
Pollen 5.60 out of 12
Air Quality Not available.
Flu Activity Sporadic
METAR KGKJ 070453Z AUTO 00000KT 8SM CLR 14/13 A3019 RMK AO2 SLP218 T01440128 402330144 TSNO

More Conditions Fewer Conditions

10-Day Weather Forecast

Almanac

Astronomy

May. 07, 2015 Rise Set
Actual Time
Civil Twilight
Nautical Twilight
Astronomical Twilight
Moon
Length of Visible Light
Length of Day
Tomorrow will be .
, % of the Moon is Illuminated

Today's Extremes

State Highs State Lows

Community

WunderPhotos

Upload Photos

1,819,126 photos uploaded!

WunderBlogs® & News

Nearby

Air Quality

  Air Quality AQ Index Pollutant
Not available.

Snow Depth

Station Depth Elevation

Earthquake Activity

City Distance Mag. Time & Date
Minimum magnitude displayed is 2.5.

Coastal Water Temperatures

Place Temperature

Stations

Nearby Weather Stations

Station Location Temp. Windchill Dew Point Humidity Wind Precip. Elev Updated Type